Terminal Aerodrome Forecast
Issued by NWS

Home | Current Version | Previous Version | Text Only | Print | Product List | Glossary On
Versions: 1 2 3 4 5 6 7 8 9 10 11 12 13 14 15 16 17 18 19 20 21 22 23 24
000
FTUS45 KLKN 202320
TAFEKO
TAF
KEKO 202320Z 2100/2124 09010G18KT P6SM VCSH SCT050 BKN080
     FM210300 10012KT 6SM -SHRA BR SCT020 OVC035
      TEMPO 2105/2109 4SM -SHRA BR SCT010 OVC020
     FM210900 12008KT P6SM VCSH SCT020 BKN035
     FM211900 VRB06KT P6SM VCSH SCT010 OVC035=

USA.gov is the U.S. government's official web portal to all federal, state and local government web resources and services.